sensor_id;sensor_type;location;lat;lon;timestamp;pressure;altitude;pressure_sealevel;temperature;humidity
81997;BME280;71500;50.806;8.774;2024-03-23T00:55:03;98823.16;;;8.93;69.68
81997;BME280;71500;50.806;8.774;2024-03-23T00:57:40;98817.38;;;8.92;69.69
81997;BME280;71500;50.806;8.774;2024-03-23T01:00:18;98807.23;;;8.93;69.79
81997;BME280;71500;50.806;8.774;2024-03-23T01:02:55;98799.41;;;8.91;69.71
81997;BME280;71500;50.806;8.774;2024-03-23T01:05:33;98792.48;;;8.88;70.04
81997;BME280;71500;50.806;8.774;2024-03-23T01:08:10;98793.77;;;8.79;70.23
81997;BME280;71500;50.806;8.774;2024-03-23T01:10:57;98791.42;;;8.74;70.26
81997;BME280;71500;50.806;8.774;2024-03-23T01:13:34;98787.48;;;8.76;70.37
81997;BME280;71500;50.806;8.774;2024-03-23T01:16:11;98791.55;;;8.76;70.46
81997;BME280;71500;50.806;8.774;2024-03-23T01:18:48;98794.45;;;8.77;70.56
81997;BME280;71500;50.806;8.774;2024-03-23T01:21:28;98789.13;;;8.77;70.54
81997;BME280;71500;50.806;8.774;2024-03-23T01:24:05;98785.89;;;8.78;70.68
81997;BME280;71500;50.806;8.774;2024-03-23T01:26:44;98785.23;;;8.76;70.73
81997;BME280;71500;50.806;8.774;2024-03-23T01:29:21;98788.02;;;8.76;70.66
81997;BME280;71500;50.806;8.774;2024-03-23T01:31:58;98781.98;;;8.76;70.60
81997;BME280;71500;50.806;8.774;2024-03-23T01:34:36;98778.13;;;8.76;70.64
81997;BME280;71500;50.806;8.774;2024-03-23T01:37:13;98770.00;;;8.76;70.70
81997;BME280;71500;50.806;8.774;2024-03-23T01:39:50;98775.70;;;8.81;70.77
81997;BME280;71500;50.806;8.774;2024-03-23T01:42:27;98770.31;;;8.83;70.80
81997;BME280;71500;50.806;8.774;2024-03-23T01:45:10;98768.73;;;8.87;70.66
81997;BME280;71500;50.806;8.774;2024-03-23T01:47:47;98765.14;;;8.89;70.55
81997;BME280;71500;50.806;8.774;2024-03-23T01:50:25;98763.45;;;8.92;70.69
81997;BME280;71500;50.806;8.774;2024-03-23T01:53:03;98755.33;;;8.91;70.60
81997;BME280;71500;50.806;8.774;2024-03-23T01:55:41;98753.09;;;8.92;70.67
81997;BME280;71500;50.806;8.774;2024-03-23T01:58:18;98742.93;;;8.91;70.71
81997;BME280;71500;50.806;8.774;2024-03-23T02:00:55;98740.48;;;8.91;70.76
81997;BME280;71500;50.806;8.774;2024-03-23T02:03:34;98736.64;;;8.91;70.68
81997;BME280;71500;50.806;8.774;2024-03-23T02:06:11;98732.55;;;8.89;70.71
81997;BME280;71500;50.806;8.774;2024-03-23T02:08:48;98733.76;;;8.88;70.91
81997;BME280;71500;50.806;8.774;2024-03-23T02:11:26;98741.23;;;8.86;70.95
81997;BME280;71500;50.806;8.774;2024-03-23T02:14:03;98736.70;;;8.83;70.85
81997;BME280;71500;50.806;8.774;2024-03-23T02:16:42;98728.28;;;8.80;71.14
81997;BME280;71500;50.806;8.774;2024-03-23T02:19:21;98719.34;;;8.76;71.27
81997;BME280;71500;50.806;8.774;2024-03-23T02:21:59;98723.64;;;8.76;71.30
81997;BME280;71500;50.806;8.774;2024-03-23T02:24:36;98714.95;;;8.79;71.47
81997;BME280;71500;50.806;8.774;2024-03-23T02:27:14;98712.58;;;8.84;71.53
81997;BME280;71500;50.806;8.774;2024-03-23T02:29:51;98701.64;;;8.83;71.64
81997;BME280;71500;50.806;8.774;2024-03-23T02:32:28;98697.54;;;8.80;71.58
81997;BME280;71500;50.806;8.774;2024-03-23T02:35:06;98693.95;;;8.80;71.72
81997;BME280;71500;50.806;8.774;2024-03-23T02:37:43;98687.06;;;8.85;71.87
81997;BME280;71500;50.806;8.774;2024-03-23T02:40:23;98691.15;;;8.92;72.10
81997;BME280;71500;50.806;8.774;2024-03-23T02:43:01;98682.17;;;8.97;72.50
81997;BME280;71500;50.806;8.774;2024-03-23T02:45:38;98669.30;;;9.02;72.80
81997;BME280;71500;50.806;8.774;2024-03-23T02:48:15;98658.75;;;9.05;73.00
81997;BME280;71500;50.806;8.774;2024-03-23T02:50:52;98647.50;;;9.07;73.22
81997;BME280;71500;50.806;8.774;2024-03-23T02:53:29;98638.85;;;9.09;73.57
81997;BME280;71500;50.806;8.774;2024-03-23T02:56:07;98650.88;;;9.09;73.60
81997;BME280;71500;50.806;8.774;2024-03-23T02:58:50;98654.85;;;9.11;73.31
81997;BME280;71500;50.806;8.774;2024-03-23T03:01:27;98655.94;;;9.11;73.17
81997;BME280;71500;50.806;8.774;2024-03-23T03:04:05;98649.65;;;9.09;73.67
81997;BME280;71500;50.806;8.774;2024-03-23T03:06:43;98651.61;;;9.07;73.88
81997;BME280;71500;50.806;8.774;2024-03-23T03:09:22;98666.10;;;9.07;74.23
81997;BME280;71500;50.806;8.774;2024-03-23T03:11:59;98657.56;;;9.11;74.71
81997;BME280;71500;50.806;8.774;2024-03-23T03:14:37;98646.18;;;9.15;74.93
81997;BME280;71500;50.806;8.774;2024-03-23T03:17:14;98640.45;;;9.17;75.38
81997;BME280;71500;50.806;8.774;2024-03-23T03:19:52;98642.46;;;9.18;75.32
81997;BME280;71500;50.806;8.774;2024-03-23T03:22:30;98645.15;;;9.18;75.74
81997;BME280;71500;50.806;8.774;2024-03-23T03:25:09;98647.30;;;9.16;76.10
81997;BME280;71500;50.806;8.774;2024-03-23T03:27:46;98642.99;;;9.15;76.37
81997;BME280;71500;50.806;8.774;2024-03-23T03:30:24;98651.69;;;9.15;76.46
81997;BME280;71500;50.806;8.774;2024-03-23T03:33:01;98645.39;;;9.12;76.25
81997;BME280;71500;50.806;8.774;2024-03-23T03:35:38;98635.02;;;9.08;76.43
81997;BME280;71500;50.806;8.774;2024-03-23T03:38:15;98645.34;;;9.08;76.32
81997;BME280;71500;50.806;8.774;2024-03-23T03:40:52;98648.45;;;9.03;76.27
81997;BME280;71500;50.806;8.774;2024-03-23T03:43:30;98636.86;;;8.97;76.18
81997;BME280;71500;50.806;8.774;2024-03-23T03:46:07;98640.05;;;8.88;76.66
81997;BME280;71500;50.806;8.774;2024-03-23T03:48:45;98651.05;;;8.81;77.47
81997;BME280;71500;50.806;8.774;2024-03-23T03:51:22;98645.29;;;8.70;77.59
81997;BME280;71500;50.806;8.774;2024-03-23T03:54:00;98645.58;;;8.58;77.70
81997;BME280;71500;50.806;8.774;2024-03-23T03:56:37;98651.61;;;8.47;77.82
81997;BME280;71500;50.806;8.774;2024-03-23T03:59:14;98640.36;;;8.37;78.01
81997;BME280;71500;50.806;8.774;2024-03-23T04:01:52;98639.59;;;8.29;78.03
81997;BME280;71500;50.806;8.774;2024-03-23T04:04:29;98652.78;;;8.25;77.76
81997;BME280;71500;50.806;8.774;2024-03-23T04:07:06;98653.89;;;8.20;77.96
81997;BME280;71500;50.806;8.774;2024-03-23T04:09:43;98661.67;;;8.17;77.93
81997;BME280;71500;50.806;8.774;2024-03-23T04:12:21;98677.40;;;8.13;77.92
81997;BME280;71500;50.806;8.774;2024-03-23T04:14:58;98675.16;;;8.11;78.14
81997;BME280;71500;50.806;8.774;2024-03-23T04:17:38;98671.67;;;8.10;78.40
81997;BME280;71500;50.806;8.774;2024-03-23T04:20:14;98668.67;;;8.10;78.51
81997;BME280;71500;50.806;8.774;2024-03-23T04:22:52;98656.70;;;8.08;78.60
81997;BME280;71500;50.806;8.774;2024-03-23T04:25:29;98658.55;;;8.05;78.50
81997;BME280;71500;50.806;8.774;2024-03-23T04:28:07;98656.70;;;8.02;78.46
81997;BME280;71500;50.806;8.774;2024-03-23T04:30:44;98661.90;;;7.98;78.50
81997;BME280;71500;50.806;8.774;2024-03-23T04:33:21;98674.89;;;7.95;78.65
81997;BME280;71500;50.806;8.774;2024-03-23T04:35:58;98679.84;;;7.93;78.76
81997;BME280;71500;50.806;8.774;2024-03-23T04:38:35;98680.05;;;7.89;78.76
81997;BME280;71500;50.806;8.774;2024-03-23T04:41:13;98685.50;;;7.86;78.77
81997;BME280;71500;50.806;8.774;2024-03-23T04:43:50;98687.25;;;7.86;78.50
81997;BME280;71500;50.806;8.774;2024-03-23T04:46:27;98689.89;;;7.84;78.31
81997;BME280;71500;50.806;8.774;2024-03-23T04:49:04;98691.15;;;7.82;78.25
81997;BME280;71500;50.806;8.774;2024-03-23T04:51:42;98688.69;;;7.82;78.25
81997;BME280;71500;50.806;8.774;2024-03-23T04:54:20;98690.42;;;7.82;78.19
81997;BME280;71500;50.806;8.774;2024-03-23T04:56:57;98682.52;;;7.82;78.21
81997;BME280;71500;50.806;8.774;2024-03-23T04:59:34;98691.79;;;7.81;77.73
81997;BME280;71500;50.806;8.774;2024-03-23T05:02:12;98697.19;;;7.78;77.84
81997;BME280;71500;50.806;8.774;2024-03-23T05:04:49;98704.56;;;7.75;77.62
81997;BME280;71500;50.806;8.774;2024-03-23T05:07:26;98709.84;;;7.72;77.46
81997;BME280;71500;50.806;8.774;2024-03-23T05:10:04;98715.94;;;7.67;77.12
81997;BME280;71500;50.806;8.774;2024-03-23T05:12:45;98722.08;;;7.64;77.33
81997;BME280;71500;50.806;8.774;2024-03-23T05:15:22;98724.41;;;7.60;77.15
81997;BME280;71500;50.806;8.774;2024-03-23T05:17:59;98732.50;;;7.54;77.02
81997;BME280;71500;50.806;8.774;2024-03-23T05:20:37;98736.78;;;7.50;77.14
81997;BME280;71500;50.806;8.774;2024-03-23T05:23:14;98742.10;;;7.50;77.06
81997;BME280;71500;50.806;8.774;2024-03-23T05:25:52;98748.46;;;7.50;77.23
81997;BME280;71500;50.806;8.774;2024-03-23T05:28:29;98757.46;;;7.50;77.08
81997;BME280;71500;50.806;8.774;2024-03-23T05:31:06;98762.98;;;7.52;77.08
81997;BME280;71500;50.806;8.774;2024-03-23T05:33:44;98777.66;;;7.53;76.65
81997;BME280;71500;50.806;8.774;2024-03-23T05:36:22;98790.23;;;7.55;76.67
81997;BME280;71500;50.806;8.774;2024-03-23T05:39:00;98803.47;;;7.55;76.17
81997;BME280;71500;50.806;8.774;2024-03-23T05:41:37;98804.23;;;7.52;75.59
81997;BME280;71500;50.806;8.774;2024-03-23T05:44:14;98807.41;;;7.52;75.85
81997;BME280;71500;50.806;8.774;2024-03-23T05:46:52;98792.93;;;7.54;76.03
81997;BME280;71500;50.806;8.774;2024-03-23T05:49:29;98794.35;;;7.56;76.19
81997;BME280;71500;50.806;8.774;2024-03-23T05:52:07;98797.67;;;7.58;76.68
81997;BME280;71500;50.806;8.774;2024-03-23T05:54:44;98797.23;;;7.59;76.29
81997;BME280;71500;50.806;8.774;2024-03-23T05:57:21;98797.77;;;7.57;75.96
81997;BME280;71500;50.806;8.774;2024-03-23T05:59:59;98793.39;;;7.53;75.78
81997;BME280;71500;50.806;8.774;2024-03-23T06:02:38;98788.55;;;7.52;75.34
81997;BME280;71500;50.806;8.774;2024-03-23T06:05:15;98781.27;;;7.50;75.55
81997;BME280;71500;50.806;8.774;2024-03-23T06:07:52;98786.64;;;7.48;75.27
81997;BME280;71500;50.806;8.774;2024-03-23T06:10:33;98789.32;;;7.46;75.17
81997;BME280;71500;50.806;8.774;2024-03-23T06:13:10;98786.88;;;7.44;75.04
81997;BME280;71500;50.806;8.774;2024-03-23T06:15:48;98798.86;;;7.44;75.43
81997;BME280;71500;50.806;8.774;2024-03-23T06:18:25;98792.93;;;7.43;75.48
81997;BME280;71500;50.806;8.774;2024-03-23T06:21:02;98787.16;;;7.42;75.24
81997;BME280;71500;50.806;8.774;2024-03-23T06:23:39;98787.03;;;7.42;75.05
81997;BME280;71500;50.806;8.774;2024-03-23T06:26:16;98796.41;;;7.37;74.50
81997;BME280;71500;50.806;8.774;2024-03-23T06:28:53;98813.09;;;7.32;74.52
81997;BME280;71500;50.806;8.774;2024-03-23T06:31:31;98828.45;;;7.29;74.37
81997;BME280;71500;50.806;8.774;2024-03-23T06:34:08;98833.25;;;7.24;74.24
81997;BME280;71500;50.806;8.774;2024-03-23T06:36:45;98841.98;;;7.20;73.81
81997;BME280;71500;50.806;8.774;2024-03-23T06:39:23;98852.10;;;7.15;73.80
81997;BME280;71500;50.806;8.774;2024-03-23T06:42:00;98854.32;;;7.16;74.03
81997;BME280;71500;50.806;8.774;2024-03-23T06:44:37;98860.48;;;7.20;74.26
81997;BME280;71500;50.806;8.774;2024-03-23T06:47:14;98868.81;;;7.24;74.36
81997;BME280;71500;50.806;8.774;2024-03-23T06:49:52;98882.16;;;7.26;74.03
81997;BME280;71500;50.806;8.774;2024-03-23T06:52:29;98889.93;;;7.30;73.90
81997;BME280;71500;50.806;8.774;2024-03-23T06:55:07;98893.56;;;7.33;73.77
81997;BME280;71500;50.806;8.774;2024-03-23T06:57:42;98896.61;;;7.38;73.84
81997;BME280;71500;50.806;8.774;2024-03-23T07:00:20;98895.48;;;7.41;73.17
81997;BME280;71500;50.806;8.774;2024-03-23T07:02:57;98898.73;;;7.45;72.79
81997;BME280;71500;50.806;8.774;2024-03-23T07:05:34;98898.27;;;7.46;72.46
81997;BME280;71500;50.806;8.774;2024-03-23T07:08:12;98899.66;;;7.46;72.70
81997;BME280;71500;50.806;8.774;2024-03-23T07:10:53;98900.46;;;7.47;72.93
81997;BME280;71500;50.806;8.774;2024-03-23T07:13:30;98907.16;;;7.47;72.59
81997;BME280;71500;50.806;8.774;2024-03-23T07:16:08;98903.84;;;7.45;72.48
81997;BME280;71500;50.806;8.774;2024-03-23T07:18:45;98907.35;;;7.41;72.49
81997;BME280;71500;50.806;8.774;2024-03-23T07:21:22;98907.95;;;7.38;72.77
81997;BME280;71500;50.806;8.774;2024-03-23T07:23:59;98921.48;;;7.35;72.52
81997;BME280;71500;50.806;8.774;2024-03-23T07:26:37;98938.91;;;7.33;72.46
81997;BME280;71500;50.806;8.774;2024-03-23T07:29:14;98946.13;;;7.29;72.10
81997;BME280;71500;50.806;8.774;2024-03-23T07:31:52;98947.69;;;7.28;72.07
81997;BME280;71500;50.806;8.774;2024-03-23T07:34:29;98952.63;;;7.24;71.44
81997;BME280;71500;50.806;8.774;2024-03-23T07:37:06;98955.13;;;7.26;71.20
81997;BME280;71500;50.806;8.774;2024-03-23T07:39:44;98955.54;;;7.27;70.77
81997;BME280;71500;50.806;8.774;2024-03-23T07:42:21;98958.21;;;7.29;71.14
81997;BME280;71500;50.806;8.774;2024-03-23T07:45:00;98962.38;;;7.33;71.05
81997;BME280;71500;50.806;8.774;2024-03-23T07:47:41;98960.54;;;7.36;70.91
81997;BME280;71500;50.806;8.774;2024-03-23T07:50:19;98966.09;;;7.40;70.71
81997;BME280;71500;50.806;8.774;2024-03-23T07:52:57;98960.61;;;7.42;70.45
81997;BME280;71500;50.806;8.774;2024-03-23T07:55:34;98961.98;;;7.44;70.29
81997;BME280;71500;50.806;8.774;2024-03-23T07:58:11;98956.52;;;7.44;70.17
81997;BME280;71500;50.806;8.774;2024-03-23T08:00:48;98958.41;;;7.45;70.53
81997;BME280;71500;50.806;8.774;2024-03-23T08:03:25;98961.66;;;7.44;69.86
81997;BME280;71500;50.806;8.774;2024-03-23T08:06:09;98965.12;;;7.43;69.62
81997;BME280;71500;50.806;8.774;2024-03-23T08:08:47;98972.29;;;7.39;69.54
81997;BME280;71500;50.806;8.774;2024-03-23T08:11:25;98976.91;;;7.37;69.57
81997;BME280;71500;50.806;8.774;2024-03-23T08:14:02;98983.70;;;7.34;69.75
81997;BME280;71500;50.806;8.774;2024-03-23T08:16:40;98978.56;;;7.30;69.87
81997;BME280;71500;50.806;8.774;2024-03-23T08:19:22;98985.85;;;7.26;70.11
81997;BME280;71500;50.806;8.774;2024-03-23T08:21:59;98988.27;;;7.21;70.36
81997;BME280;71500;50.806;8.774;2024-03-23T08:24:37;98989.98;;;7.17;70.69
81997;BME280;71500;50.806;8.774;2024-03-23T08:27:14;98987.76;;;7.14;70.78
81997;BME280;71500;50.806;8.774;2024-03-23T08:29:51;98990.02;;;7.16;70.85
81997;BME280;71500;50.806;8.774;2024-03-23T08:32:28;98997.70;;;7.18;70.83
81997;BME280;71500;50.806;8.774;2024-03-23T08:35:06;99004.11;;;7.17;70.71
81997;BME280;71500;50.806;8.774;2024-03-23T08:37:44;99006.15;;;7.18;70.86
81997;BME280;71500;50.806;8.774;2024-03-23T08:40:21;99002.52;;;7.19;71.01
81997;BME280;71500;50.806;8.774;2024-03-23T08:42:58;99005.01;;;7.21;71.20
81997;BME280;71500;50.806;8.774;2024-03-23T08:45:36;99008.27;;;7.24;70.74
81997;BME280;71500;50.806;8.774;2024-03-23T08:48:13;99018.23;;;7.25;70.59
81997;BME280;71500;50.806;8.774;2024-03-23T08:51:01;99019.57;;;7.24;70.85
81997;BME280;71500;50.806;8.774;2024-03-23T08:53:39;99017.54;;;7.23;70.94
81997;BME280;71500;50.806;8.774;2024-03-23T08:56:16;99023.35;;;7.21;71.01
81997;BME280;71500;50.806;8.774;2024-03-23T08:58:54;99027.99;;;7.16;70.68
81997;BME280;71500;50.806;8.774;2024-03-23T09:01:31;99031.66;;;7.09;71.25
81997;BME280;71500;50.806;8.774;2024-03-23T09:04:08;99033.60;;;7.07;71.54
81997;BME280;71500;50.806;8.774;2024-03-23T09:06:47;99036.48;;;7.08;71.94
81997;BME280;71500;50.806;8.774;2024-03-23T09:09:25;99039.02;;;7.15;72.39
81997;BME280;71500;50.806;8.774;2024-03-23T09:12:02;99048.02;;;7.29;71.80
81997;BME280;71500;50.806;8.774;2024-03-23T09:14:39;99047.41;;;7.41;70.90
81997;BME280;71500;50.806;8.774;2024-03-23T09:17:16;99046.65;;;7.53;70.77
81997;BME280;71500;50.806;8.774;2024-03-23T09:19:54;99051.55;;;7.68;70.57
81997;BME280;71500;50.806;8.774;2024-03-23T09:22:31;99046.67;;;7.81;70.58
81997;BME280;71500;50.806;8.774;2024-03-23T09:25:09;99049.70;;;7.96;70.31
81997;BME280;71500;50.806;8.774;2024-03-23T09:27:48;99044.86;;;8.08;69.26
81997;BME280;71500;50.806;8.774;2024-03-23T09:30:25;99042.21;;;8.20;69.42
81997;BME280;71500;50.806;8.774;2024-03-23T09:33:03;99037.87;;;8.29;68.59
81997;BME280;71500;50.806;8.774;2024-03-23T09:35:42;99038.56;;;8.34;68.26
81997;BME280;71500;50.806;8.774;2024-03-23T09:38:19;99035.08;;;8.42;68.38
81997;BME280;71500;50.806;8.774;2024-03-23T09:40:56;99037.70;;;8.48;67.94
81997;BME280;71500;50.806;8.774;2024-03-23T09:43:34;99034.11;;;8.56;67.69
81997;BME280;71500;50.806;8.774;2024-03-23T09:46:11;99030.42;;;8.61;67.86
81997;BME280;71500;50.806;8.774;2024-03-23T09:48:49;99031.54;;;8.69;67.62
81997;BME280;71500;50.806;8.774;2024-03-23T09:51:26;99027.17;;;8.73;67.09
81997;BME280;71500;50.806;8.774;2024-03-23T09:54:03;99025.09;;;8.77;66.06
81997;BME280;71500;50.806;8.774;2024-03-23T09:56:40;99018.89;;;8.81;66.30
81997;BME280;71500;50.806;8.774;2024-03-23T09:59:18;99016.27;;;8.88;66.08
81997;BME280;71500;50.806;8.774;2024-03-23T10:01:55;99011.66;;;8.95;64.66
81997;BME280;71500;50.806;8.774;2024-03-23T10:04:43;99009.73;;;9.01;64.03
81997;BME280;71500;50.806;8.774;2024-03-23T10:07:23;99015.50;;;9.08;63.39
81997;BME280;71500;50.806;8.774;2024-03-23T10:10:00;99009.20;;;9.15;63.04
81997;BME280;71500;50.806;8.774;2024-03-23T10:12:49;99009.67;;;9.23;62.01
81997;BME280;71500;50.806;8.774;2024-03-23T10:15:27;99006.70;;;9.24;60.76
81997;BME280;71500;50.806;8.774;2024-03-23T10:18:19;99008.14;;;9.23;60.47
81997;BME280;71500;50.806;8.774;2024-03-23T10:21:09;98999.59;;;9.21;60.15
81997;BME280;71500;50.806;8.774;2024-03-23T10:23:47;99006.90;;;9.22;59.92
81997;BME280;71500;50.806;8.774;2024-03-23T10:26:26;99000.47;;;9.28;59.55
81997;BME280;71500;50.806;8.774;2024-03-23T10:29:05;98996.21;;;9.37;58.88
81997;BME280;71500;50.806;8.774;2024-03-23T10:31:42;98996.56;;;9.45;57.98
81997;BME280;71500;50.806;8.774;2024-03-23T10:34:27;98995.23;;;9.53;57.50
81997;BME280;71500;50.806;8.774;2024-03-23T10:37:06;98983.73;;;9.55;57.07
81997;BME280;71500;50.806;8.774;2024-03-23T10:39:43;98968.97;;;9.57;57.12
81997;BME280;71500;50.806;8.774;2024-03-23T10:42:20;98959.30;;;9.60;57.13
81997;BME280;71500;50.806;8.774;2024-03-23T10:44:58;98958.25;;;9.65;57.62
81997;BME280;71500;50.806;8.774;2024-03-23T10:47:37;98953.11;;;9.74;57.54
81997;BME280;71500;50.806;8.774;2024-03-23T10:50:15;98957.62;;;9.82;57.64
81997;BME280;71500;50.806;8.774;2024-03-23T10:52:55;98960.16;;;9.87;56.05
81997;BME280;71500;50.806;8.774;2024-03-23T10:55:34;98953.55;;;9.89;56.35
81997;BME280;71500;50.806;8.774;2024-03-23T10:58:11;98969.94;;;9.90;55.34
81997;BME280;71500;50.806;8.774;2024-03-23T11:00:49;98982.13;;;9.87;55.02
81997;BME280;71500;50.806;8.774;2024-03-23T11:03:35;98998.87;;;9.78;55.59
81997;BME280;71500;50.806;8.774;2024-03-23T11:09:05;99002.59;;;9.51;58.07
81997;BME280;71500;50.806;8.774;2024-03-23T11:15:11;98984.42;;;9.46;60.53
81997;BME280;71500;50.806;8.774;2024-03-23T11:18:05;98972.23;;;9.51;60.58
81997;BME280;71500;50.806;8.774;2024-03-23T11:20:43;98965.63;;;9.61;60.31
81997;BME280;71500;50.806;8.774;2024-03-23T11:23:31;98962.48;;;9.74;59.68
81997;BME280;71500;50.806;8.774;2024-03-23T11:26:12;98962.09;;;9.85;58.49
81997;BME280;71500;50.806;8.774;2024-03-23T11:28:49;98953.47;;;9.86;57.27
81997;BME280;71500;50.806;8.774;2024-03-23T11:31:27;98958.14;;;9.86;57.72
81997;BME280;71500;50.806;8.774;2024-03-23T11:34:08;98973.03;;;9.82;56.71
81997;BME280;71500;50.806;8.774;2024-03-23T11:36:45;99015.04;;;9.72;57.48
81997;BME280;71500;50.806;8.774;2024-03-23T11:39:23;99020.16;;;9.54;59.73
81997;BME280;71500;50.806;8.774;2024-03-23T11:42:00;99022.01;;;9.29;60.60
81997;BME280;71500;50.806;8.774;2024-03-23T11:44:37;99033.15;;;9.04;61.28
81997;BME280;71500;50.806;8.774;2024-03-23T11:47:14;99032.25;;;8.72;61.80
81997;BME280;71500;50.806;8.774;2024-03-23T11:49:51;99011.45;;;8.39;61.98
81997;BME280;71500;50.806;8.774;2024-03-23T11:52:29;98999.75;;;8.20;63.16
81997;BME280;71500;50.806;8.774;2024-03-23T11:55:09;98990.69;;;8.13;64.25
81997;BME280;71500;50.806;8.774;2024-03-23T11:57:46;98986.10;;;8.13;63.97
81997;BME280;71500;50.806;8.774;2024-03-23T12:00:27;98980.41;;;8.17;64.38
81997;BME280;71500;50.806;8.774;2024-03-23T12:03:07;98963.41;;;8.23;64.26
81997;BME280;71500;50.806;8.774;2024-03-23T12:05:50;98966.40;;;8.33;63.89
81997;BME280;71500;50.806;8.774;2024-03-23T12:08:31;98964.60;;;8.50;63.55
81997;BME280;71500;50.806;8.774;2024-03-23T12:11:10;98974.02;;;8.61;63.92
81997;BME280;71500;50.806;8.774;2024-03-23T12:13:49;98964.63;;;8.67;62.74
81997;BME280;71500;50.806;8.774;2024-03-23T12:16:27;98967.84;;;8.70;62.83
81997;BME280;71500;50.806;8.774;2024-03-23T12:19:09;98964.57;;;8.75;62.40
81997;BME280;71500;50.806;8.774;2024-03-23T12:21:46;98957.75;;;8.78;63.11
81997;BME280;71500;50.806;8.774;2024-03-23T12:24:23;98963.27;;;8.81;63.21
81997;BME280;71500;50.806;8.774;2024-03-23T12:27:04;98959.95;;;8.86;62.86
81997;BME280;71500;50.806;8.774;2024-03-23T12:29:42;98961.70;;;8.92;62.55
81997;BME280;71500;50.806;8.774;2024-03-23T12:32:18;98955.61;;;8.96;62.24
81997;BME280;71500;50.806;8.774;2024-03-23T12:34:55;98967.98;;;9.02;62.62
81997;BME280;71500;50.806;8.774;2024-03-23T12:37:32;98978.71;;;9.03;62.23
81997;BME280;71500;50.806;8.774;2024-03-23T12:40:12;99004.72;;;8.97;62.15
81997;BME280;71500;50.806;8.774;2024-03-23T12:42:49;99009.44;;;8.81;63.08
81997;BME280;71500;50.806;8.774;2024-03-23T12:45:26;99008.61;;;8.69;63.61
81997;BME280;71500;50.806;8.774;2024-03-23T12:48:04;98999.15;;;8.54;63.36
81997;BME280;71500;50.806;8.774;2024-03-23T12:50:41;98997.06;;;8.46;63.74
81997;BME280;71500;50.806;8.774;2024-03-23T12:53:18;99001.38;;;8.35;63.32
81997;BME280;71500;50.806;8.774;2024-03-23T12:55:55;98998.50;;;8.30;64.02
81997;BME280;71500;50.806;8.774;2024-03-23T12:58:33;98995.00;;;8.30;63.91
81997;BME280;71500;50.806;8.774;2024-03-23T13:01:10;98990.09;;;8.33;64.45
81997;BME280;71500;50.806;8.774;2024-03-23T13:03:48;98997.12;;;8.43;63.41
81997;BME280;71500;50.806;8.774;2024-03-23T13:06:25;98995.45;;;8.51;63.12
81997;BME280;71500;50.806;8.774;2024-03-23T13:09:08;98989.41;;;8.61;63.39
81997;BME280;71500;50.806;8.774;2024-03-23T13:11:45;98988.31;;;8.67;62.45
81997;BME280;71500;50.806;8.774;2024-03-23T13:14:22;98992.44;;;8.70;62.31
81997;BME280;71500;50.806;8.774;2024-03-23T13:17:00;98987.71;;;8.73;63.16
81997;BME280;71500;50.806;8.774;2024-03-23T13:19:38;98985.77;;;8.79;62.46
81997;BME280;71500;50.806;8.774;2024-03-23T13:22:15;98980.91;;;8.83;61.60
81997;BME280;71500;50.806;8.774;2024-03-23T13:24:52;98988.77;;;8.88;61.27
81997;BME280;71500;50.806;8.774;2024-03-23T13:27:29;98992.11;;;8.90;59.90
81997;BME280;71500;50.806;8.774;2024-03-23T13:30:08;98992.71;;;8.88;59.39
81997;BME280;71500;50.806;8.774;2024-03-23T13:32:46;98991.44;;;8.83;59.17
81997;BME280;71500;50.806;8.774;2024-03-23T13:35:23;98991.92;;;8.78;59.14
81997;BME280;71500;50.806;8.774;2024-03-23T13:38:00;99005.16;;;8.72;58.93
81997;BME280;71500;50.806;8.774;2024-03-23T13:40:38;99028.91;;;8.65;58.95
81997;BME280;71500;50.806;8.774;2024-03-23T13:43:15;99036.70;;;8.51;57.65
81997;BME280;71500;50.806;8.774;2024-03-23T13:45:55;99028.34;;;8.36;58.41
81997;BME280;71500;50.806;8.774;2024-03-23T13:48:33;99026.58;;;8.27;57.88
81997;BME280;71500;50.806;8.774;2024-03-23T13:51:10;99036.09;;;8.17;57.78
81997;BME280;71500;50.806;8.774;2024-03-23T13:53:48;99041.50;;;8.04;57.92
81997;BME280;71500;50.806;8.774;2024-03-23T13:56:25;99040.30;;;7.92;59.07
81997;BME280;71500;50.806;8.774;2024-03-23T13:59:02;99037.75;;;7.84;59.80
81997;BME280;71500;50.806;8.774;2024-03-23T14:01:40;99035.17;;;7.75;60.00
81997;BME280;71500;50.806;8.774;2024-03-23T14:04:17;99036.10;;;7.70;60.19
81997;BME280;71500;50.806;8.774;2024-03-23T14:06:55;99039.92;;;7.69;60.59
81997;BME280;71500;50.806;8.774;2024-03-23T14:09:32;99034.65;;;7.71;60.53
81997;BME280;71500;50.806;8.774;2024-03-23T14:12:09;99026.21;;;7.76;61.28
81997;BME280;71500;50.806;8.774;2024-03-23T14:14:47;99035.13;;;7.85;60.72
81997;BME280;71500;50.806;8.774;2024-03-23T14:17:24;99032.60;;;7.92;60.35
81997;BME280;71500;50.806;8.774;2024-03-23T14:20:02;99037.78;;;7.97;59.68
81997;BME280;71500;50.806;8.774;2024-03-23T14:22:45;99043.81;;;8.02;59.58
81997;BME280;71500;50.806;8.774;2024-03-23T14:25:23;99026.46;;;8.06;59.56
81997;BME280;71500;50.806;8.774;2024-03-23T14:28:04;99023.30;;;8.10;58.36
81997;BME280;71500;50.806;8.774;2024-03-23T14:30:46;99022.63;;;8.04;57.35
81997;BME280;71500;50.806;8.774;2024-03-23T14:33:24;99019.00;;;7.99;57.25
81997;BME280;71500;50.806;8.774;2024-03-23T14:36:02;99024.27;;;7.96;57.57
81997;BME280;71500;50.806;8.774;2024-03-23T14:38:40;99026.84;;;7.95;58.01
81997;BME280;71500;50.806;8.774;2024-03-23T14:41:17;99030.55;;;7.95;57.98
81997;BME280;71500;50.806;8.774;2024-03-23T14:43:55;99010.45;;;7.90;58.83
81997;BME280;71500;50.806;8.774;2024-03-23T14:46:32;98995.35;;;7.89;59.75
81997;BME280;71500;50.806;8.774;2024-03-23T14:49:14;98989.38;;;7.91;59.99
81997;BME280;71500;50.806;8.774;2024-03-23T14:51:52;98983.48;;;7.89;59.75
81997;BME280;71500;50.806;8.774;2024-03-23T14:54:29;98978.80;;;7.91;59.47
81997;BME280;71500;50.806;8.774;2024-03-23T14:57:06;98976.08;;;7.91;59.55
81997;BME280;71500;50.806;8.774;2024-03-23T14:59:44;98973.30;;;7.96;60.02
81997;BME280;71500;50.806;8.774;2024-03-23T15:02:22;98976.43;;;8.03;59.94
81997;BME280;71500;50.806;8.774;2024-03-23T15:05:01;98967.73;;;8.07;60.18
81997;BME280;71500;50.806;8.774;2024-03-23T15:07:40;98970.07;;;8.08;60.06